Nagpur, India

8:34 AM IST on August 25, 2016 (GMT +0530)
Nagpur | | Change Station

Elev 1017 ft 21.09 °N, 79.06 °E | Updated 2 hours ago

Haze
Haze
82 °F
Feels Like 90 °F
N
4
Wind Variable Wind from NNW

Today
High -- | Low -- °F
--% Chance of Precip.
Yesterday
High -- | Low -- °F
Precip. -- in
Pressure 29.74 in
Visibility -9999.0 miles
Clouds Few 2000 ft
Mostly Cloudy 10000 ft
Heat Index 90 °F
Dew Point 75 °F
Humidity 79%
Rainfall 0.00 in
Snow Depth Not available.
5:55 AM 6:35 PM
Waning Gibbous, 50% visible
METAR VANP 250100Z 34003KT 4000HZ FEW020 BKN100 28/24 Q1007 NOSIG
Pressure 29.74 in
Visibility -9999.0 miles
Clouds Few 2000 ft
Mostly Cloudy 10000 ft
Heat Index 90 °F
Dew Point 75 °F
Humidity 79%
Rainfall 0.00 in
Snow Depth Not available.
5:55 AM 6:35 PM
Waning Gibbous, 50% visible
METAR VANP 250100Z 34003KT 4000HZ FEW020 BKN100 28/24 Q1007 NOSIG

10-Day Weather Forecast

No radar image for this location.
×

Almanac

Astronomy

Aug. 25, 2016 Rise Set
Actual Time
Civil Twilight
Nautical Twilight
Astronomical Twilight
Moon
Length of Visible Light
Length of Day
Tomorrow will be .
, % of the Moon is Illuminated

Today's Extremes

Country Highs Country Lows

Community

WunderPhotos

Upload Photos

1,934,787 photos uploaded!

WunderBlog® & News

Nearby

Air Quality

  Air Quality AQ Index Pollutant
Not available.

Snow Depth

Station Depth Elevation

Earthquake Activity

City Distance Mag. Time & Date
Minimum magnitude displayed is 2.5.

Coastal Water Temperatures

Place Temperature

Stations

Nearby Weather Stations

Station Location Temp. Windchill Dew Point Humidity Wind Precip. Elev Updated Type